首页
METAR-TAF:

METAR-TAF

机场 :

鲁昂, 法国

纬度: 49-23N, 经度: 001-11E, 海拔: 157米

当前天气观测

该预报发布于19分钟前的17:30 UTC
风速10节,风向西南
温度 7°C
湿度 76%
气压 1028 hPa
能见度10公里或以上
1500米以下无云,无积雨云

METAR: LFOP 211730Z AUTO 22010KT CAVOK 07/03 Q1028 NOSIG

时间: 18:49 (17:49 UTC)

预报

该预报发布于6小时和49分钟前的11:00 UTC
预报有效从21日的 12点(UTC)到 22日的 12点(UTC)
风速10节,风向西南
能见度10公里或以上
散云层高于4000英尺
成为
从 22日的 08点(UTC)到 22日的 10点(UTC)
阴天层高于1000英尺

TAF: LFOP 211100Z 2112/2212 23010KT 9999 SCT040 BECMG 2208/2210 OVC010

超过4000个机场的气象观测和天气预报(METAR&TAF报告)。

可查询的气象台以黄色和红色小点在地图上表示。

将鼠标移到小点上方,可查看气象台名称。

然后点击查看天气观测和预报。

如需切换地图:点击带黑十字的绿色按钮放大地图;点击带横线的绿色按钮缩小地图;或者点击绿色箭头查看邻近地区的地图。


METAR-TAF: